Time;durP1;ratioP1;P1;durP2;ratioP2;P2;SDS_P1;SDS_P2;PMS_P1;PMS_P2;Temp;Humidity;BMP_temperature;BMP_pressure;BME280_temperature;BME280_humidity;BME280_pressure;Samples;Min_cycle;Max_cycle;Signal;HPM_P1;HPM_P2
2022/09/02 00:00:34;;;;;;;;;6.50;6.50;;;;;25.74;35.71;100710.38;2098632;28;45196;-60
2022/09/02 00:01:40;;;;;;;;;7.00;7.00;;;;;25.72;35.88;100699.63;2096374;28;47557;-62
2022/09/02 00:02:40;;;;;;;;;8.00;8.00;;;;;25.71;36.26;100700.63;2092129;28;47490;-61
2022/09/02 00:03:42;;;;;;;;;9.00;8.75;;;;;25.74;36.16;100710.38;2069502;28;47834;-62
2022/09/02 00:04:43;;;;;;;;;10.00;8.40;;;;;25.73;36.21;100701.38;2071255;28;47439;-61
2022/09/02 00:05:44;;;;;;;;;8.60;7.60;;;;;25.74;35.78;100700.38;2103697;28;47680;-62
2022/09/02 00:06:46;;;;;;;;;8.75;8.75;;;;;25.76;36.39;100705.66;2087203;28;47266;-61
2022/09/02 00:07:46;;;;;;;;;10.80;10.80;;;;;25.77;35.67;100693.78;2087222;28;47664;-62
2022/09/02 00:08:47;;;;;;;;;10.00;9.00;;;;;25.77;36.58;100699.22;2101694;28;46453;-60
2022/09/02 00:09:47;;;;;;;;;8.00;8.00;;;;;25.77;36.08;100691.94;2103348;28;47964;-61
2022/09/02 00:10:48;;;;;;;;;9.00;7.50;;;;;25.77;36.50;100694.66;2103561;28;47221;-61
2022/09/02 00:11:50;;;;;;;;;6.25;6.25;;;;;25.77;36.52;100688.34;2096237;28;47340;-61
2022/09/02 00:12:50;;;;;;;;;7.80;7.80;;;;;25.77;36.17;100688.34;2095373;28;47868;-61
2022/09/02 00:13:50;;;;;;;;;10.00;9.00;;;;;25.75;36.54;100680.34;2096047;28;47072;-61
2022/09/02 00:14:51;;;;;;;;;9.00;8.00;;;;;25.77;36.18;100693.78;2091981;28;47694;-61
2022/09/02 00:15:51;;;;;;;;;9.00;9.00;;;;;25.75;36.52;100682.19;2101680;28;47399;-60
2022/09/02 00:16:52;;;;;;;;;8.00;6.50;;;;;25.75;36.52;100688.50;2103052;28;47912;-61
2022/09/02 00:17:53;;;;;;;;;6.50;6.50;;;;;25.74;36.26;100689.50;2105230;28;47645;-61
2022/09/02 00:18:55;;;;;;;;;8.40;8.40;;;;;25.73;36.48;100679.63;2105010;28;47843;-61
2022/09/02 00:19:55;;;;;;;;;7.00;7.00;;;;;25.74;36.36;100675.03;2103829;28;47690;-59
2022/09/02 00:20:56;;;;;;;;;8.00;8.00;;;;;25.74;35.91;100677.75;2104610;28;47637;-61
2022/09/02 00:21:58;;;;;;;;;8.40;8.40;;;;;25.72;36.41;100674.31;2095893;28;47901;-60
2022/09/02 00:22:59;;;;;;;;;6.60;6.60;;;;;25.69;36.15;100671.88;2096177;28;47431;-61
2022/09/02 00:24:01;;;;;;;;;9.75;7.25;;;;;25.68;36.38;100675.56;2103765;28;47037;-62
2022/09/02 00:25:02;;;;;;;;;8.00;8.00;;;;;25.67;35.97;100671.09;2095654;28;47828;-62
2022/09/02 00:26:03;;;;;;;;;9.00;9.00;;;;;25.67;36.74;100671.09;2087679;28;47051;-62
2022/09/02 00:27:03;;;;;;;;;9.00;9.00;;;;;25.64;36.22;100666.78;2091877;28;47536;-61
2022/09/02 00:28:05;;;;;;;;;8.50;8.50;;;;;25.65;36.63;100667.63;2096426;28;47915;-62
2022/09/02 00:29:05;;;;;;;;;7.40;7.40;;;;;25.65;36.25;100670.34;2102619;28;47210;-62
2022/09/02 00:30:06;;;;;;;;;8.25;8.25;;;;;25.63;36.69;100665.06;2102495;28;47672;-62
2022/09/02 00:31:07;;;;;;;;;8.25;8.25;;;;;25.63;36.43;100670.47;2096480;28;47760;-61
2022/09/02 00:32:07;;;;;;;;;8.75;8.75;;;;;25.62;36.32;100655.16;2095895;28;47151;-60
2022/09/02 00:33:09;;;;;;;;;9.50;9.50;;;;;25.62;36.35;100663.31;2096230;28;47539;-60
2022/09/02 00:34:10;;;;;;;;;8.20;8.20;;;;;25.62;36.81;100667.91;2102769;28;47227;-61
2022/09/02 00:35:11;;;;;;;;;10.00;10.00;;;;;25.61;36.82;100663.47;2101835;28;47595;-61
2022/09/02 00:36:11;;;;;;;;;8.00;8.00;;;;;25.61;36.36;100664.31;2102459;28;47686;-62
2022/09/02 00:37:12;;;;;;;;;8.50;8.50;;;;;25.59;36.81;100669.03;2099715;28;47906;-61
2022/09/02 00:38:12;;;;;;;;;10.75;10.75;;;;;25.59;36.57;100657.31;2100171;28;47647;-61
2022/09/02 00:39:13;;;;;;;;;9.75;9.75;;;;;25.57;37.04;100662.00;2096164;28;47650;-61
2022/09/02 00:40:14;;;;;;;;;9.50;9.00;;;;;25.57;36.39;100657.44;2101179;28;47132;-61
2022/09/02 00:41:15;;;;;;;;;8.80;8.20;;;;;25.57;36.88;100656.56;2094712;28;47956;-61
2022/09/02 00:42:15;;;;;;;;;12.00;10.00;;;;;25.57;37.17;100662.88;2086981;28;47787;-60
2022/09/02 00:43:25;;;;;;;;;8.00;8.00;;;;;25.57;37.25;100656.56;2099487;28;47275;-59
2022/09/02 00:44:26;;;;;;;;;7.80;7.80;;;;;25.56;36.87;100663.00;2103246;28;47351;-61
2022/09/02 00:45:26;;;;;;;;;9.40;9.40;;;;;25.56;37.21;100660.28;2104583;28;47974;-60
2022/09/02 00:46:29;;;;;;;;;10.75;10.75;;;;;25.55;37.21;100661.28;2102665;28;47536;-62
2022/09/02 00:47:30;;;;;;;;;7.20;7.20;;;;;25.55;36.77;100661.28;2096487;28;47983;-61
2022/09/02 00:48:31;;;;;;;;;7.60;7.60;;;;;25.53;37.39;100658.66;2102791;28;47673;-61
2022/09/02 00:49:37;;;;;;;;;5.80;5.80;;;;;25.52;37.04;100657.81;2104859;28;47747;-62
2022/09/02 00:50:38;;;;;;;;;8.00;8.00;;;;;25.50;36.70;100651.66;2102983;28;48019;-62
2022/09/02 00:51:52;;;;;;;;;8.75;8.25;;;;;25.51;36.95;100660.66;2086934;28;47460;-60
2022/09/02 00:52:57;;;;;;;;;10.80;10.80;;;;;25.48;36.84;100650.91;2088931;28;47830;-61
2022/09/02 00:53:58;;;;;;;;;8.80;8.80;;;;;25.48;37.24;100650.06;2098397;28;47465;-62
2022/09/02 00:55:04;;;;;;;;;9.00;9.00;;;;;25.47;37.15;100654.63;2098536;28;47276;-60
2022/09/02 00:56:09;;;;;;;;;8.00;8.00;;;;;25.46;37.18;100655.63;2096197;28;47407;-61
2022/09/02 00:57:16;;;;;;;;;9.60;9.60;;;;;25.46;36.98;100662.91;2103144;28;47615;-61
2022/09/02 00:58:23;;;;;;;;;7.60;7.60;;;;;25.45;37.06;100656.63;2104442;28;47929;-61
2022/09/02 00:59:42;;;;;;;;;9.80;9.00;;;;;25.45;36.95;100661.19;2104746;28;47474;-62
2022/09/02 01:00:45;;;;;;;;;9.00;9.00;;;;;25.45;37.39;100655.75;2102430;28;48095;-61
2022/09/02 01:01:45;;;;;;;;;9.80;8.20;;;;;25.44;37.44;100654.91;2104560;28;47665;-61
2022/09/02 01:02:58;;;;;;;;;9.00;9.00;;;;;25.44;37.62;100654.91;2103051;28;47607;-61
2022/09/02 01:03:59;;;;;;;;;11.00;11.00;;;;;25.43;37.67;100661.31;2098167;28;47622;-61
2022/09/02 01:05:02;;;;;;;;;8.00;8.00;;;;;25.44;37.63;100656.75;2102132;28;47639;-61
2022/09/02 01:06:03;;;;;;;;;6.80;6.80;;;;;25.42;37.51;100662.31;2095527;28;47521;-61
2022/09/02 01:07:05;;;;;;;;;9.00;9.00;;;;;25.41;37.01;100655.16;2095148;28;47631;-61
2022/09/02 01:08:06;;;;;;;;;7.80;7.80;;;;;25.39;37.45;100657.13;2100438;28;47525;-59
2022/09/02 01:09:11;;;;;;;;;7.00;7.00;;;;;25.38;37.32;100646.41;2096148;28;47367;-61
2022/09/02 01:10:16;;;;;;;;;8.20;7.80;;;;;25.38;37.61;100654.53;2096339;28;47305;-62
2022/09/02 01:11:18;;;;;;;;;8.20;8.20;;;;;25.35;37.27;100658.38;2104659;27;47185;-61
2022/09/02 01:12:19;;;;;;;;;8.00;8.00;;;;;25.36;37.36;100651.09;2103689;27;47383;-61
2022/09/02 01:13:23;;;;;;;;;12.00;10.00;;;;;25.34;37.68;100648.50;2104624;28;46289;-61
2022/09/02 01:14:23;;;;;;;;;9.00;9.00;;;;;25.33;37.42;100649.50;2103586;28;47575;-61
2022/09/02 01:15:25;;;;;;;;;8.25;7.75;;;;;25.34;37.76;100650.38;2103710;28;47498;-61
2022/09/02 01:16:32;;;;;;;;;8.80;8.80;;;;;25.33;37.79;100646.78;2099648;28;47627;-61
2022/09/02 01:17:33;;;;;;;;;8.20;7.80;;;;;25.34;37.86;100645.81;2096853;28;47907;-62
2022/09/02 01:18:35;;;;;;;;;8.60;7.80;;;;;25.33;37.46;100644.06;2098925;28;47718;-61
2022/09/02 01:19:42;;;;;;;;;11.40;11.40;;;;;25.33;37.98;100643.22;2092320;28;47173;-62
2022/09/02 01:20:42;;;;;;;;;7.60;7.60;;;;;25.33;37.59;100649.50;2095765;28;47520;-61
2022/09/02 01:21:46;;;;;;;;;10.00;10.00;;;;;25.34;37.42;100642.22;2102676;28;47435;-62
2022/09/02 01:22:47;;;;;;;;;9.00;9.00;;;;;25.35;37.80;100649.38;2097147;28;48278;-61
2022/09/02 01:23:48;;;;;;;;;7.40;7.40;;;;;25.35;37.55;100643.94;2088223;28;47603;-61
2022/09/02 01:24:49;;;;;;;;;7.80;7.60;;;;;25.35;37.62;100650.25;2095773;28;47845;-59
2022/09/02 01:25:50;;;;;;;;;9.50;8.50;;;;;25.35;37.82;100646.66;2104276;27;47398;-60
2022/09/02 01:26:53;;;;;;;;;9.20;9.20;;;;;25.36;37.45;100642.94;2100409;28;48029;-61
2022/09/02 01:27:59;;;;;;;;;9.00;9.00;;;;;25.36;37.57;100645.66;2104962;28;47864;-60
2022/09/02 01:28:59;;;;;;;;;8.00;8.00;;;;;25.34;37.87;100647.66;2102981;28;47540;-61
2022/09/02 01:30:01;;;;;;;;;9.25;9.25;;;;;25.34;37.51;100645.81;2097872;28;47115;-61
2022/09/02 01:31:01;;;;;;;;;10.00;10.00;;;;;25.35;37.94;100644.81;2103968;28;47896;-60
2022/09/02 01:32:02;;;;;;;;;9.00;9.00;;;;;25.37;37.53;100644.66;2095931;28;47989;-61
2022/09/02 01:33:03;;;;;;;;;9.75;9.75;;;;;25.37;37.59;100645.53;2088545;28;47055;-61
2022/09/02 01:34:05;;;;;;;;;8.00;8.00;;;;;25.36;37.79;100649.25;2097953;28;47659;-60
2022/09/02 01:35:07;;;;;;;;;9.60;9.60;;;;;25.39;37.83;100642.69;2102605;28;46603;-61
2022/09/02 01:36:07;;;;;;;;;8.80;8.80;;;;;25.39;37.79;100648.97;2105153;28;46786;-61
2022/09/02 01:37:08;;;;;;;;;9.75;9.75;;;;;25.40;37.73;100647.13;2105869;28;47718;-61
2022/09/02 01:38:08;;;;;;;;;8.25;8.25;;;;;25.40;37.69;100645.25;2104139;27;46936;-60
2022/09/02 01:39:11;;;;;;;;;9.75;9.75;;;;;25.42;37.93;100650.59;2096223;28;47146;-61
2022/09/02 01:40:14;;;;;;;;;8.80;8.80;;;;;25.41;38.14;100647.03;2097078;28;47984;-61
2022/09/02 01:41:14;;;;;;;;;9.80;9.80;;;;;25.42;38.08;100648.75;2103981;28;47269;-61
2022/09/02 01:42:15;;;;;;;;;7.00;7.00;;;;;25.42;37.78;100648.75;2105905;28;47125;-62
2022/09/02 01:43:22;;;;;;;;;8.25;8.25;;;;;25.42;37.51;100646.03;2103879;28;48047;-61
2022/09/02 01:44:25;;;;;;;;;9.00;8.20;;;;;25.42;38.12;100645.16;2104152;28;47360;-61
2022/09/02 01:45:26;;;;;;;;;8.40;8.40;;;;;25.40;37.91;100639.81;2102657;28;47651;-61
2022/09/02 01:46:27;;;;;;;;;7.40;7.40;;;;;25.42;37.88;100645.16;2105802;28;47782;-62
2022/09/02 01:47:27;;;;;;;;;8.75;8.50;;;;;25.41;37.56;100644.31;2098430;28;47627;-61
2022/09/02 01:48:28;;;;;;;;;7.50;7.50;;;;;25.41;38.18;100643.41;2084868;28;47671;-61
2022/09/02 01:49:28;;;;;;;;;8.75;7.25;;;;;25.40;37.61;100647.97;2088116;28;47688;-62
2022/09/02 01:50:30;;;;;;;;;9.00;8.50;;;;;25.38;37.45;100636.38;2106163;28;47559;-61
2022/09/02 01:51:30;;;;;;;;;7.00;6.80;;;;;25.37;37.71;100642.81;2105825;28;47947;-59
2022/09/02 01:52:31;;;;;;;;;8.00;8.00;;;;;25.35;38.09;100639.38;2101562;28;47811;-61
2022/09/02 01:53:32;;;;;;;;;8.75;8.75;;;;;25.34;38.09;100636.78;2101851;28;47554;-61
2022/09/02 01:54:33;;;;;;;;;8.00;7.25;;;;;25.32;38.18;100633.34;2105960;28;47114;-61
2022/09/02 01:55:34;;;;;;;;;9.80;9.80;;;;;25.30;38.02;100635.34;2104638;28;47361;-62
2022/09/02 01:56:34;;;;;;;;;9.00;8.00;;;;;25.29;37.79;100633.63;2104930;28;47975;-61
2022/09/02 01:57:35;;;;;;;;;9.75;9.75;;;;;25.27;38.16;100632.84;2106426;28;45656;-61
2022/09/02 01:58:35;;;;;;;;;8.25;8.25;;;;;25.26;37.97;100633.84;2105872;28;47866;-61
2022/09/02 01:59:36;;;;;;;;;9.25;9.25;;;;;25.24;38.47;100631.25;2105496;28;47485;-60
2022/09/02 02:00:36;;;;;;;;;10.00;8.75;;;;;25.23;38.22;100633.13;2103986;28;47483;-62
2022/09/02 02:01:36;;;;;;;;;8.25;8.25;;;;;25.23;38.20;100633.13;2110124;27;47829;-61
2022/09/02 02:02:37;;;;;;;;;9.00;9.00;;;;;25.21;38.28;100624.25;2107375;27;47199;-60
2022/09/02 02:03:38;;;;;;;;;8.60;8.60;;;;;25.22;38.34;100630.53;2105825;28;47607;-61
2022/09/02 02:04:38;;;;;;;;;9.25;9.25;;;;;25.21;37.94;100629.69;2103093;28;47793;-61
2022/09/02 02:05:40;;;;;;;;;7.75;7.75;;;;;25.20;38.40;100627.94;2097710;28;47904;-61
2022/09/02 02:06:42;;;;;;;;;8.80;8.80;;;;;25.20;38.46;100630.66;2103621;28;47492;-61
2022/09/02 02:07:44;;;;;;;;;8.20;8.00;;;;;25.19;38.67;100631.66;2104688;28;47908;-61
2022/09/02 02:08:45;;;;;;;;;8.80;8.80;;;;;25.18;38.42;100623.66;2104900;28;48099;-61
2022/09/02 02:09:45;;;;;;;;;8.80;8.80;;;;;25.18;38.27;100629.94;2105405;27;47371;-60
2022/09/02 02:10:46;;;;;;;;;10.50;9.00;;;;;25.18;38.15;100637.22;2106025;28;45906;-60
2022/09/02 02:11:47;;;;;;;;;10.40;10.40;;;;;25.19;38.73;100641.66;2104529;28;47700;-60
2022/09/02 02:12:48;;;;;;;;;8.60;8.60;;;;;25.19;38.88;100641.66;2097811;28;48339;-61
2022/09/02 02:13:49;;;;;;;;;7.25;7.25;;;;;25.19;38.16;100647.97;2097433;28;47433;-60
2022/09/02 02:14:49;;;;;;;;;11.00;10.75;;;;;25.20;38.21;100673.25;2097618;28;47333;-59
2022/09/02 02:15:50;;;;;;;;;7.25;7.25;;;;;25.19;38.21;100690.56;2099188;28;48005;-61
2022/09/02 02:16:50;;;;;;;;;8.25;8.25;;;;;25.18;38.65;100699.69;2103801;28;47558;-61
2022/09/02 02:17:51;;;;;;;;;6.75;6.75;;;;;25.15;37.88;100702.63;2099277;28;47757;-61
2022/09/02 02:18:51;;;;;;;;;9.00;9.00;;;;;25.11;38.46;100688.47;2100716;28;48075;-60
2022/09/02 02:19:52;;;;;;;;;11.75;10.50;;;;;25.08;38.23;100661.56;2104584;28;47682;-62
2022/09/02 02:20:52;;;;;;;;;12.00;10.75;;;;;25.08;38.41;100666.13;2101297;28;47540;-62
2022/09/02 02:21:53;;;;;;;;;8.25;8.25;;;;;25.07;38.27;100689.72;2088340;28;47941;-61
2022/09/02 02:22:53;;;;;;;;;10.00;9.00;;;;;25.05;38.44;100694.41;2094885;28;47658;-61
2022/09/02 02:23:54;;;;;;;;;9.75;8.75;;;;;25.03;38.21;100699.13;2100850;28;47192;-61
2022/09/02 02:24:54;;;;;;;;;9.75;9.75;;;;;25.02;38.69;100686.50;2105851;28;47115;-62
2022/09/02 02:25:54;;;;;;;;;12.00;12.00;;;;;25.02;38.60;100663.91;2090075;28;47643;-60
2022/09/02 02:26:55;;;;;;;;;10.00;8.00;;;;;25.03;38.69;100660.19;2083951;28;47783;-61
2022/09/02 02:27:55;;;;;;;;;8.00;7.25;;;;;25.04;38.66;100659.25;2105672;28;48388;-61
2022/09/02 02:28:56;;;;;;;;;8.25;8.25;;;;;25.06;38.93;100665.41;2105598;28;47651;-61
2022/09/02 02:29:56;;;;;;;;;10.25;10.00;;;;;25.08;38.62;100682.44;2104522;28;47895;-61
2022/09/02 02:30:57;;;;;;;;;8.75;8.75;;;;;25.08;38.57;100696.88;2103132;28;47762;-60
2022/09/02 02:31:57;;;;;;;;;10.00;10.00;;;;;25.08;38.41;100704.16;2105667;28;47616;-62
2022/09/02 02:32:58;;;;;;;;;10.50;10.00;;;;;25.06;38.43;100692.56;2105706;28;47902;-61
2022/09/02 02:33:58;;;;;;;;;10.00;10.00;;;;;25.05;38.41;100675.41;2099323;28;47716;-60
2022/09/02 02:34:59;;;;;;;;;10.25;10.25;;;;;25.04;38.92;100662.81;2104053;28;47295;-61
2022/09/02 02:36:03;;;;;;;;;9.00;9.00;;;;;25.04;38.93;100653.81;2103418;28;47406;-61
2022/09/02 02:37:04;;;;;;;;;8.00;7.00;;;;;25.05;38.70;100669.13;2103746;28;47972;-61
2022/09/02 02:38:05;;;;;;;;;8.60;8.60;;;;;25.04;38.80;100672.81;2104442;28;47401;-61
2022/09/02 02:39:08;;;;;;;;;8.80;8.80;;;;;25.05;38.52;100674.53;2097259;28;48205;-61
2022/09/02 02:40:10;;;;;;;;;8.40;8.40;;;;;25.05;38.37;100672.69;2082242;28;46808;-62
2022/09/02 02:41:12;;;;;;;;;10.00;10.00;;;;;25.03;38.51;100669.25;2079767;28;47128;-61
2022/09/02 02:42:13;;;;;;;;;9.40;9.40;;;;;25.05;38.45;100669.97;2102467;28;47534;-61
2022/09/02 02:43:13;;;;;;;;;5.50;5.50;;;;;25.06;38.41;100665.41;2100641;28;47552;-61
2022/09/02 02:44:13;;;;;;;;;9.50;8.50;;;;;25.06;38.66;100670.84;2104838;28;47498;-61
2022/09/02 02:45:15;;;;;;;;;9.50;9.50;;;;;25.06;38.69;100668.97;2109293;27;47702;-61
2022/09/02 02:46:15;;;;;;;;;10.40;10.00;;;;;25.05;38.52;100669.97;2103391;28;48143;-61
2022/09/02 02:47:16;;;;;;;;;9.00;8.75;;;;;25.04;38.53;100670.09;2097233;28;48237;-62
2022/09/02 02:48:17;;;;;;;;;7.40;7.40;;;;;25.03;38.58;100666.53;2102070;28;47611;-62
2022/09/02 02:49:17;;;;;;;;;10.00;9.00;;;;;25.03;38.23;100662.91;2105557;28;47441;-62
2022/09/02 02:50:20;;;;;;;;;12.00;11.00;;;;;25.02;38.38;100664.78;2104347;28;47558;-61
2022/09/02 02:51:20;;;;;;;;;9.00;9.00;;;;;25.01;38.59;100673.06;2100334;28;47895;-60
2022/09/02 02:52:20;;;;;;;;;11.00;10.25;;;;;25.01;38.47;100664.91;2097532;27;47548;-61
2022/09/02 02:53:21;;;;;;;;;9.50;8.25;;;;;25.00;38.30;100672.16;2099828;28;47427;-61
2022/09/02 02:54:21;;;;;;;;;8.50;8.50;;;;;25.00;38.48;100663.16;2103150;28;46311;-61
2022/09/02 02:55:23;;;;;;;;;10.00;10.00;;;;;25.00;38.41;100669.44;2103504;28;47323;-61
2022/09/02 02:56:23;;;;;;;;;10.60;9.20;;;;;25.00;38.33;100666.72;2105660;28;48030;-60
2022/09/02 02:57:24;;;;;;;;;8.00;8.00;;;;;25.01;38.34;100665.78;2102785;28;47384;-61
2022/09/02 02:58:25;;;;;;;;;9.25;9.25;;;;;25.01;38.53;100667.63;2101606;28;47332;-59
2022/09/02 02:59:25;;;;;;;;;9.60;8.60;;;;;25.03;38.26;100668.34;2105336;28;47291;-61
2022/09/02 03:00:28;;;;;;;;;12.25;10.25;;;;;25.02;38.29;100662.06;2087450;28;47963;-60
2022/09/02 03:01:30;;;;;;;;;11.20;11.20;;;;;25.02;38.34;100661.19;2088490;28;48059;-61
2022/09/02 03:02:32;;;;;;;;;8.00;8.00;;;;;25.02;38.71;100658.47;2103015;28;47776;-61
2022/09/02 03:03:32;;;;;;;;;10.00;10.00;;;;;25.01;38.70;100660.34;2105401;28;47971;-61
2022/09/02 03:04:33;;;;;;;;;10.75;9.75;;;;;25.00;38.60;100661.28;2105662;28;47903;-60
2022/09/02 03:05:36;;;;;;;;;9.20;8.80;;;;;24.99;38.87;100665.00;2105508;28;48250;-61
2022/09/02 03:06:37;;;;;;;;;10.80;9.20;;;;;25.00;38.82;100657.72;2099448;28;47804;-61
2022/09/02 03:07:37;;;;;;;;;12.00;12.00;;;;;24.99;38.85;100662.28;2097752;28;48063;-60
2022/09/02 03:08:37;;;;;;;;;11.00;11.00;;;;;25.01;38.79;100656.75;2104139;28;47760;-62
2022/09/02 03:09:38;;;;;;;;;6.25;4.75;;;;;25.01;38.57;100657.63;2100544;28;47448;-60
2022/09/02 03:10:40;;;;;;;;;14.00;14.00;;;;;25.02;38.61;100655.78;2097454;28;47958;-60
2022/09/02 03:11:43;;;;;;;;;18.80;18.80;;;;;25.03;38.74;100646.63;2104166;28;48117;-61
2022/09/02 03:12:47;;;;;;;;;17.75;17.75;;;;;25.03;38.64;100647.53;2091680;28;47922;-62
2022/09/02 03:13:50;;;;;;;;;18.00;18.00;;;;;25.04;38.30;100642.94;2088161;28;47617;-60
2022/09/02 03:14:51;;;;;;;;;19.60;19.20;;;;;25.05;38.59;100653.69;2086579;28;47744;-61
2022/09/02 03:15:52;;;;;;;;;20.60;20.40;;;;;25.06;38.75;100654.53;2085990;28;47455;-60
2022/09/02 03:16:53;;;;;;;;;23.80;22.00;;;;;25.05;38.77;100650.97;2104638;28;48017;-61
2022/09/02 03:17:56;;;;;;;;;24.00;22.50;;;;;25.07;38.50;100658.97;2111087;27;47258;-60
2022/09/02 03:18:56;;;;;;;;;22.80;21.80;;;;;25.06;38.50;100663.56;2112681;27;46588;-61
2022/09/02 03:19:58;;;;;;;;;28.50;27.50;;;;;25.07;38.51;100657.13;2104133;27;47434;-62
2022/09/02 03:20:59;;;;;;;;;23.80;22.80;;;;;25.07;38.65;100667.13;2104166;28;47696;-60
2022/09/02 03:21:59;;;;;;;;;26.00;24.00;;;;;25.08;38.90;100655.28;2105652;28;47914;-60
2022/09/02 03:23:00;;;;;;;;;23.50;23.50;;;;;25.07;38.63;100654.41;2105392;28;47840;-60
2022/09/02 03:24:01;;;;;;;;;24.60;23.40;;;;;25.05;38.78;100648.25;2083713;28;47600;-59
2022/09/02 03:25:01;;;;;;;;;20.75;20.75;;;;;25.06;38.45;100649.13;2085802;28;47823;-61
2022/09/02 03:26:07;;;;;;;;;20.25;19.75;;;;;25.06;39.24;100654.53;2096396;28;47212;-61
2022/09/02 03:27:08;;;;;;;;;24.00;22.60;;;;;25.05;38.97;100648.25;2096384;28;47595;-62
2022/09/02 03:28:08;;;;;;;;;19.75;19.75;;;;;25.05;39.11;100639.25;2100533;28;47818;-61
2022/09/02 03:29:09;;;;;;;;;17.75;17.75;;;;;25.02;39.26;100644.91;2103445;28;47413;-60
2022/09/02 03:30:13;;;;;;;;;16.00;14.40;;;;;25.01;39.14;100651.34;2105163;28;48372;-61
2022/09/02 03:31:20;;;;;;;;;15.80;15.80;;;;;24.98;39.52;100652.41;2105227;28;47648;-60
2022/09/02 03:32:20;;;;;;;;;19.40;19.20;;;;;24.96;39.36;100657.13;2103038;28;48079;-61
2022/09/02 03:33:21;;;;;;;;;16.25;16.25;;;;;24.93;39.57;100651.94;2097248;28;47506;-61
2022/09/02 03:34:21;;;;;;;;;22.50;20.75;;;;;24.93;39.99;100649.25;2105352;28;47955;-61
2022/09/02 03:35:22;;;;;;;;;20.00;20.00;;;;;24.90;40.11;100644.03;2101718;28;47514;-61
2022/09/02 03:36:29;;;;;;;;;20.00;20.00;;;;;24.87;40.09;100647.00;2102184;28;47463;-61
2022/09/02 03:37:29;;;;;;;;;19.80;19.80;;;;;24.85;40.44;100649.84;2104410;28;47704;-61
2022/09/02 03:38:29;;;;;;;;;24.00;23.25;;;;;24.84;40.54;100653.56;2096419;28;48455;-61
2022/09/02 03:39:30;;;;;;;;;23.00;22.00;;;;;24.81;40.79;100653.81;2091581;28;47773;-61
2022/09/02 03:40:30;;;;;;;;;19.25;18.75;;;;;24.79;40.86;100650.38;2101455;28;47745;-61
2022/09/02 03:41:30;;;;;;;;;22.25;22.25;;;;;24.77;40.63;100655.03;2096858;28;47485;-61
2022/09/02 03:42:31;;;;;;;;;23.00;22.75;;;;;24.75;41.31;100653.44;2105240;28;47399;-60
2022/09/02 03:43:31;;;;;;;;;22.25;21.25;;;;;24.73;41.35;100648.16;2103918;28;47884;-61
2022/09/02 03:44:33;;;;;;;;;20.00;18.50;;;;;24.73;41.22;100652.72;2101829;28;47617;-60
2022/09/02 03:45:33;;;;;;;;;22.80;20.80;;;;;24.70;41.45;100645.69;2103736;28;47620;-60
2022/09/02 03:46:34;;;;;;;;;20.75;20.00;;;;;24.69;41.08;100645.81;2096920;28;47838;-60
2022/09/02 03:47:36;;;;;;;;;22.80;20.80;;;;;24.67;41.60;100645.09;2103640;28;47467;-60
2022/09/02 03:48:36;;;;;;;;;22.80;21.80;;;;;24.65;41.73;100640.66;2101130;28;47841;-61
2022/09/02 03:49:36;;;;;;;;;17.25;17.00;;;;;24.65;41.87;100645.22;2096252;28;47936;-61
2022/09/02 03:50:40;;;;;;;;;22.00;20.50;;;;;24.62;42.21;100640.03;2104199;28;47587;-62
2022/09/02 03:51:41;;;;;;;;;12.20;12.20;;;;;24.60;41.86;100637.44;2104100;28;47955;-61
2022/09/02 03:52:42;;;;;;;;;17.60;16.60;;;;;24.60;41.50;100633.88;2100362;28;48021;-61
2022/09/02 03:53:43;;;;;;;;;18.25;17.00;;;;;24.60;42.05;100634.72;2103079;28;47479;-61
2022/09/02 03:54:43;;;;;;;;;17.50;17.00;;;;;24.59;42.13;100630.28;2105096;28;47372;-61
2022/09/02 03:55:43;;;;;;;;;19.00;19.00;;;;;24.59;42.00;100633.00;2103070;28;47478;-61
2022/09/02 03:56:44;;;;;;;;;19.25;18.50;;;;;24.59;42.29;100629.44;2104338;28;47969;-60
2022/09/02 03:57:45;;;;;;;;;19.00;18.00;;;;;24.58;42.32;100628.56;2104919;28;47528;-61
2022/09/02 03:58:49;;;;;;;;;19.40;18.60;;;;;24.58;42.27;100625.00;2103891;28;47947;-61
2022/09/02 03:59:50;;;;;;;;;17.40;17.40;;;;;24.57;42.69;100624.13;2103634;28;48105;-62
2022/09/02 04:00:53;;;;;;;;;14.00;14.00;;;;;24.58;42.82;100627.69;2094424;28;46952;-61
2022/09/02 04:01:53;;;;;;;;;14.40;13.60;;;;;24.56;42.38;100622.41;2096164;28;48380;-61
2022/09/02 04:02:54;;;;;;;;;16.75;16.75;;;;;24.56;42.59;100613.41;2105003;28;46695;-59
2022/09/02 04:03:55;;;;;;;;;17.75;16.00;;;;;24.56;42.64;100621.53;2103847;28;47427;-60
2022/09/02 04:04:55;;;;;;;;;16.60;16.60;;;;;24.54;42.64;100620.81;2100115;28;48165;-61
2022/09/02 04:05:56;;;;;;;;;17.75;14.75;;;;;24.55;42.70;100617.09;2097092;28;47538;-62
2022/09/02 04:06:57;;;;;;;;;17.80;17.80;;;;;24.54;43.01;100618.97;2105162;28;47520;-61
2022/09/02 04:07:58;;;;;;;;;17.00;17.00;;;;;24.53;42.70;100611.81;2102264;28;47320;-62
2022/09/02 04:08:58;;;;;;;;;15.50;15.50;;;;;24.53;43.14;100613.66;2099234;28;47383;-60
2022/09/02 04:10:00;;;;;;;;;14.50;13.25;;;;;24.52;43.10;100612.81;2102416;28;47909;-62
2022/09/02 04:11:05;;;;;;;;;15.00;15.00;;;;;24.50;43.17;100608.47;2094524;28;47764;-60
2022/09/02 04:12:06;;;;;;;;;14.00;13.20;;;;;24.50;43.51;100613.88;2077828;28;47696;-61
2022/09/02 04:13:06;;;;;;;;;12.00;12.00;;;;;24.50;43.37;100608.47;2078524;28;47252;-62
2022/09/02 04:14:07;;;;;;;;;13.00;12.00;;;;;24.49;43.68;100609.44;2079051;28;46429;-61
2022/09/02 04:15:10;;;;;;;;;14.75;13.00;;;;;24.48;43.94;100610.44;2095420;28;47322;-61
2022/09/02 04:16:13;;;;;;;;;14.40;14.40;;;;;24.48;44.17;100596.88;2102755;28;47394;-60
2022/09/02 04:17:14;;;;;;;;;13.00;13.00;;;;;24.47;44.01;100604.16;2096443;28;47577;-60
2022/09/02 04:18:16;;;;;;;;;13.50;12.25;;;;;24.47;44.42;100612.28;2110908;27;47486;-61
2022/09/02 04:19:16;;;;;;;;;12.00;12.00;;;;;24.48;44.31;100608.59;2104763;27;47679;-61
2022/09/02 04:20:16;;;;;;;;;12.75;12.75;;;;;24.48;44.34;100605.00;2103598;28;46061;-62
2022/09/02 04:21:18;;;;;;;;;11.50;11.50;;;;;24.48;44.30;100599.59;2104833;28;47951;-60
2022/09/02 04:22:19;;;;;;;;;11.00;11.00;;;;;24.49;44.55;100609.44;2104946;28;47624;-61
2022/09/02 04:23:19;;;;;;;;;11.25;11.25;;;;;24.49;44.70;100602.19;2104760;28;47908;-62
2022/09/02 04:24:19;;;;;;;;;10.25;10.25;;;;;24.48;44.51;100608.59;2101612;28;47972;-61
2022/09/02 04:25:20;;;;;;;;;10.25;10.00;;;;;24.48;44.98;100613.16;2095710;28;47168;-60
2022/09/02 04:26:21;;;;;;;;;12.50;12.50;;;;;24.47;44.72;100611.44;2079614;28;47230;-62
2022/09/02 04:27:21;;;;;;;;;11.20;10.00;;;;;24.45;44.74;100614.28;2089899;28;48117;-61
2022/09/02 04:28:22;;;;;;;;;10.00;10.00;;;;;24.45;44.99;100610.69;2100728;28;47662;-59
2022/09/02 04:29:23;;;;;;;;;10.50;10.00;;;;;24.44;44.97;100612.56;2101417;28;47468;-60
2022/09/02 04:30:24;;;;;;;;;12.00;12.00;;;;;24.42;44.87;100619.09;2103827;28;47980;-61
2022/09/02 04:31:27;;;;;;;;;11.20;11.20;;;;;24.41;44.97;100617.38;2104225;28;47625;-61
2022/09/02 04:32:27;;;;;;;;;11.20;10.60;;;;;24.40;44.90;100624.66;2100216;28;47737;-61
2022/09/02 04:33:28;;;;;;;;;7.00;7.00;;;;;24.41;44.96;100623.66;2104311;28;47595;-61
2022/09/02 04:34:28;;;;;;;;;10.50;10.50;;;;;24.42;44.90;100622.66;2103662;28;47618;-61
2022/09/02 04:35:28;;;;;;;;;10.75;10.75;;;;;24.42;44.83;100619.94;2096473;28;47443;-61
2022/09/02 04:36:29;;;;;;;;;8.50;8.50;;;;;24.43;45.18;100624.41;2101624;28;47393;-61
2022/09/02 04:37:32;;;;;;;;;9.75;9.00;;;;;24.44;45.08;100623.41;2086818;28;47549;-60
2022/09/02 04:38:33;;;;;;;;;9.60;8.00;;;;;24.44;44.98;100622.53;2087194;28;47319;-60
2022/09/02 04:39:33;;;;;;;;;9.80;9.80;;;;;24.43;45.33;100623.53;2104086;28;47892;-61
2022/09/02 04:40:34;;;;;;;;;11.00;10.00;;;;;24.43;45.16;100623.53;2084816;28;47544;-61
2022/09/02 04:41:36;;;;;;;;;12.00;11.50;;;;;24.43;45.79;100620.81;2086641;28;47853;-62
2022/09/02 04:42:37;;;;;;;;;10.80;10.80;;;;;24.41;45.65;100620.09;2104846;28;47817;-62